Aviation Digital Data Service (ADDS)

Output produced by METARs form (1028 UTC 23 March 2017)
found at http://aviationweather.gov/adds/metars/
 
KSWF 230830Z 2309/2412 29008KT P6SM SKC 
     FM231600 32010G18KT P6SM SKC 
     FM232200 31007KT P6SM SCT250 
     FM240100 VRB03KT P6SM BKN250 
     FM240800 VRB03KT P6SM SCT080 BKN100 AMD NOT SKED